Time;durP1;ratioP1;P1;durP2;ratioP2;P2;SDS_P1;SDS_P2;PMS_P1;PMS_P2;Temp;Humidity;BMP_temperature;BMP_pressure;BME280_temperature;BME280_humidity;BME280_pressure;Samples;Min_cycle;Max_cycle;Signal;HPM_P1;HPM_P2
2021/08/06 00:00:06;;;;;;;;;;;;;;;14.86;94.97;96896.51;1804756;79;22148;-92
2021/08/06 00:02:38;;;;;;;;;;;;;;;14.78;94.99;96885.53;1806828;79;26259;-92
2021/08/06 00:05:07;;;;;;;;;;;;;;;14.72;94.97;96890.16;1793986;79;24527;-92
2021/08/06 00:07:35;;;;;;;;;;;;;;;14.69;94.97;96887.02;1803608;79;20321;-91
2021/08/06 00:10:02;;;;;;;;;;;;;;;14.67;94.99;96881.13;1807064;79;24805;-92
2021/08/06 00:15:29;;;;;;;;;;;;;;;14.65;95.07;96887.38;1788887;79;25954;-93
2021/08/06 00:17:56;;;;;;;;;;;;;;;14.65;95.11;96893.14;1760956;80;25219;-92
2021/08/06 00:20:25;;;;;;;;;;;;;;;14.62;95.09;96895.60;1804130;79;20309;-91
2021/08/06 00:22:51;;;;;;;;;;;;;;;14.60;95.17;96897.61;1812824;79;24764;-91
2021/08/06 00:25:17;;;;;;;;;;;;;;;14.58;95.21;96894.80;1812432;79;20241;-91
2021/08/06 00:27:52;;;;;;;;;;;;;;;14.60;95.23;96897.61;1813025;79;26014;-91
2021/08/06 00:30:24;;;;;;;;;;;;;;;14.59;95.28;96897.27;1812313;79;24426;-91
2021/08/06 00:32:50;;;;;;;;;;;;;;;14.59;95.32;96901.22;1810351;79;20264;-90
2021/08/06 00:35:16;;;;;;;;;;;;;;;14.59;95.35;96899.08;1812902;79;24817;-91
2021/08/06 00:37:50;;;;;;;;;;;;;;;14.57;95.37;96899.24;1806795;79;20935;-91
2021/08/06 00:40:20;;;;;;;;;;;;;;;14.57;95.41;96898.41;1812007;79;26168;-91
2021/08/06 00:42:46;;;;;;;;;;;;;;;14.57;95.47;96903.19;1801510;79;24424;-90
2021/08/06 00:45:14;;;;;;;;;;;;;;;14.57;95.49;96902.37;1777193;79;20287;-91
2021/08/06 00:47:43;;;;;;;;;;;;;;;14.56;95.52;96904.70;1798150;79;24885;-91
2021/08/06 00:50:18;;;;;;;;;;;;;;;14.55;95.55;96906.51;1773423;80;22120;-91
2021/08/06 00:52:45;;;;;;;;;;;;;;;14.55;95.62;96912.27;1810037;79;26977;-91
2021/08/06 00:55:11;;;;;;;;;;;;;;;14.57;95.62;96911.09;1816314;79;24579;-91
2021/08/06 00:57:37;;;;;;;;;;;;;;;14.57;95.63;96906.31;1812972;79;20222;-91
2021/08/06 01:00:05;;;;;;;;;;;;;;;14.54;95.68;96912.75;1812352;79;20302;-90
2021/08/06 01:02:35;;;;;;;;;;;;;;;14.50;95.66;96914.09;1809393;79;21403;-90
2021/08/06 01:05:07;;;;;;;;;;;;;;;14.46;95.68;96912.77;1764669;80;26230;-92
2021/08/06 01:07:37;;;;;;;;;;;;;;;14.46;95.71;96914.57;1798876;79;24466;-91
2021/08/06 01:10:21;;;;;;;;;;;;;;;14.43;95.71;96917.06;1796785;79;20530;-91
2021/08/06 01:12:53;;;;;;;;;;;;;;;14.42;95.73;96915.91;1801732;79;24734;-90
2021/08/06 01:15:22;;;;;;;;;;;;;;;14.42;95.76;96912.78;1803986;79;22240;-90
2021/08/06 01:17:58;;;;;;;;;;;;;;;14.41;95.77;96908.50;1778367;80;26172;-91
2021/08/06 01:20:32;;;;;;;;;;;;;;;14.41;95.81;96915.08;1808404;79;25308;-90
2021/08/06 01:23:03;;;;;;;;;;;;;;;14.43;95.84;96907.02;1806893;79;20344;-90
2021/08/06 01:25:40;;;;;;;;;;;;;;;14.43;95.87;96914.92;1805497;79;24755;-91
2021/08/06 01:28:12;;;;;;;;;;;;;;;14.43;95.90;96910.48;1796230;79;22012;-89
2021/08/06 01:30:39;;;;;;;;;;;;;;;14.43;95.93;96909.66;1781648;79;25991;-87
2021/08/06 01:33:05;;;;;;;;;;;;;;;14.43;95.97;96911.80;1767053;80;24380;-87
2021/08/06 01:35:31;;;;;;;;;;;;;;;14.42;95.98;96912.78;1792263;79;20206;-86
2021/08/06 01:37:57;;;;;;;;;;;;;;;14.44;96.03;96913.45;1793434;79;20785;-87
2021/08/06 01:40:25;;;;;;;;;;;;;;;14.45;96.05;96912.46;1781513;79;20169;-86
2021/08/06 01:42:53;;;;;;;;;;;;;;;14.47;96.09;96917.04;1763845;80;26095;-86
2021/08/06 01:45:21;;;;;;;;;;;;;;;14.49;96.12;96914.25;1809208;79;25154;-86
2021/08/06 01:47:49;;;;;;;;;;;;;;;14.49;96.15;96920.34;1808499;79;20233;-87
2021/08/06 01:50:17;;;;;;;;;;;;;;;14.51;96.23;96915.70;1777515;80;24798;-87
2021/08/06 01:52:51;;;;;;;;;;;;;;;14.51;96.27;96917.55;1814159;79;22261;-86
2021/08/06 01:55:19;;;;;;;;;;;;;;;14.48;96.28;96917.38;1798249;79;26848;-86
2021/08/06 01:57:53;;;;;;;;;;;;;;;14.46;96.30;96914.08;1799246;79;24742;-86
2021/08/06 02:00:25;;;;;;;;;;;;;;;14.48;96.31;96909.97;1781960;80;20210;-87
2021/08/06 02:02:57;;;;;;;;;;;;;;;14.46;96.33;96912.77;1804321;79;24777;-87
2021/08/06 02:05:23;;;;;;;;;;;;;;;14.50;96.36;96922.48;1799293;79;21933;-87
2021/08/06 02:07:49;;;;;;;;;;;;;;;14.50;96.40;96916.72;1795065;79;21031;-86
2021/08/06 02:10:16;;;;;;;;;;;;;;;14.52;96.41;96916.53;1769530;80;20247;-87
2021/08/06 02:12:42;;;;;;;;;;;;;;;14.54;96.46;96923.28;1816802;78;20244;-86
2021/08/06 02:15:09;;;;;;;;;;;;;;;14.51;96.47;96912.28;1787354;78;24753;-86
2021/08/06 02:17:37;;;;;;;;;;;;;;;14.51;96.50;96920.18;1798621;79;21947;-86
2021/08/06 02:20:07;;;;;;;;;;;;;;;14.51;96.52;96919.66;1805692;78;25802;-86
2021/08/06 02:22:33;;;;;;;;;;;;;;;14.53;96.52;96920.32;1810743;78;24405;-86
2021/08/06 02:25:00;;;;;;;;;;;;;;;14.53;96.60;96922.95;1804034;78;20138;-86
2021/08/06 02:27:27;;;;;;;;;;;;;;;14.54;96.62;96926.41;1809260;78;24829;-86
2021/08/06 02:29:53;;;;;;;;;;;;;;;14.55;96.67;96924.94;1803959;78;21925;-86
2021/08/06 02:32:19;;;;;;;;;;;;;;;14.56;96.68;96925.76;1806484;78;25980;-86
2021/08/06 02:34:46;;;;;;;;;;;;;;;14.56;96.68;96923.13;1798660;78;24490;-86
2021/08/06 02:37:12;;;;;;;;;;;;;;;14.55;96.71;96928.06;1803541;78;20234;-86
2021/08/06 02:39:38;;;;;;;;;;;;;;;14.56;96.74;96924.44;1813046;78;24796;-86
2021/08/06 02:42:11;;;;;;;;;;;;;;;14.52;96.75;96925.25;1803887;78;22016;-87
2021/08/06 02:44:38;;;;;;;;;;;;;;;14.56;96.77;96923.13;1809316;78;26012;-86
2021/08/06 02:47:05;;;;;;;;;;;;;;;14.60;96.80;96927.05;1812429;78;24589;-86
2021/08/06 02:49:34;;;;;;;;;;;;;;;14.60;96.83;96925.73;1797345;78;20235;-86
2021/08/06 02:52:02;;;;;;;;;;;;;;;14.64;96.83;96933.62;1812433;78;24819;-86
2021/08/06 02:54:30;;;;;;;;;;;;;;;14.65;96.89;96934.78;1778816;80;22010;-86
2021/08/06 02:57:01;;;;;;;;;;;;;;;14.63;96.92;96937.23;1788501;78;25990;-87
2021/08/06 02:59:27;;;;;;;;;;;;;;;14.60;96.92;96942.36;1757727;81;24593;-86
2021/08/06 03:01:53;;;;;;;;;;;;;;;14.60;96.96;96941.05;1776038;80;20904;-87
2021/08/06 03:04:19;;;;;;;;;;;;;;;14.58;96.96;96938.23;1741309;80;20270;-87
2021/08/06 03:06:44;;;;;;;;;;;;;;;14.59;96.99;96940.71;1753770;81;20730;-87
2021/08/06 03:09:10;;;;;;;;;;;;;;;14.59;97.01;96943.84;1757531;81;21118;-87
2021/08/06 03:11:37;;;;;;;;;;;;;;;14.57;97.03;96945.31;1755890;81;24430;-87
2021/08/06 03:14:07;;;;;;;;;;;;;;;14.56;97.02;96944.98;1751888;81;20352;-86
2021/08/06 03:16:34;;;;;;;;;;;;;;;14.58;97.03;96940.88;1753037;81;24791;-87
2021/08/06 03:19:00;;;;;;;;;;;;;;;14.56;97.09;96948.14;1754737;81;20395;-87
2021/08/06 03:21:26;;;;;;;;;;;;;;;14.55;97.08;96953.89;1756060;81;25925;-87
2021/08/06 03:23:52;;;;;;;;;;;;;;;14.54;97.10;96950.11;1751638;81;24377;-87
2021/08/06 03:26:18;;;;;;;;;;;;;;;14.50;97.12;96953.58;1753989;80;20279;-87
2021/08/06 03:28:44;;;;;;;;;;;;;;;14.49;97.13;96959.00;1756754;81;24812;-87
2021/08/06 03:31:12;;;;;;;;;;;;;;;14.52;97.17;96966.06;1751977;81;20171;-87
2021/08/06 03:33:41;;;;;;;;;;;;;;;14.54;97.16;96965.41;1750492;81;25977;-87
2021/08/06 03:36:07;;;;;;;;;;;;;;;14.55;97.22;96968.37;1755049;81;24411;-86
2021/08/06 03:38:33;;;;;;;;;;;;;;;14.56;97.25;96968.67;1752150;81;20467;-87
2021/08/06 03:40:59;;;;;;;;;;;;;;;14.57;97.24;96969.50;1757673;81;24783;-87
2021/08/06 03:43:25;;;;;;;;;;;;;;;14.56;97.26;96976.58;1755152;81;20895;-87
2021/08/06 03:45:51;;;;;;;;;;;;;;;14.56;97.30;96981.84;1754217;81;26042;-86
2021/08/06 03:48:17;;;;;;;;;;;;;;;14.57;97.31;96978.22;1756014;81;24443;-86
2021/08/06 03:50:43;;;;;;;;;;;;;;;14.57;97.31;96980.86;1754274;81;20284;-86
2021/08/06 03:53:09;;;;;;;;;;;;;;;14.56;97.35;96977.89;1754833;81;20266;-86
2021/08/06 03:55:35;;;;;;;;;;;;;;;14.60;97.37;96981.86;1754055;81;21928;-86
2021/08/06 03:58:03;;;;;;;;;;;;;;;14.60;97.37;96976.59;1772262;80;22482;-86
2021/08/06 04:00:41;;;;;;;;;;;;;;;14.62;97.40;96983.80;1781154;80;24437;-86
2021/08/06 04:03:07;;;;;;;;;;;;;;;14.62;97.40;96973.77;1783624;80;20318;-86
2021/08/06 04:05:35;;;;;;;;;;;;;;;14.61;97.41;96974.29;1780809;80;25712;-87
2021/08/06 04:08:05;;;;;;;;;;;;;;;14.58;97.41;96981.19;1779791;80;22178;-87
2021/08/06 04:10:34;;;;;;;;;;;;;;;14.56;97.43;96979.20;1778901;80;26863;-86
2021/08/06 04:13:00;;;;;;;;;;;;;;;14.54;97.45;96977.75;1775175;80;24434;-87
2021/08/06 04:15:26;;;;;;;;;;;;;;;14.53;97.44;96982.19;1779167;80;20514;-87
2021/08/06 04:17:59;;;;;;;;;;;;;;;14.51;97.46;96988.10;1736424;80;39230;-86
2021/08/06 04:20:27;;;;;;;;;;;;;;;14.52;97.47;96988.92;1778171;80;22227;-87
2021/08/06 04:22:53;;;;;;;;;;;;;;;14.54;97.49;96993.55;1779543;80;26364;-86
2021/08/06 04:25:19;;;;;;;;;;;;;;;14.53;97.50;96987.45;1778979;80;24481;-86
2021/08/06 04:27:45;;;;;;;;;;;;;;;14.49;97.49;96978.74;1768189;80;20266;-90
2021/08/06 04:30:17;;;;;;;;;;;;;;;14.48;97.50;96986.31;1768403;80;25749;-90
2021/08/06 04:32:43;;;;;;;;;;;;;;;14.47;97.49;96989.43;1783450;80;21955;-90
2021/08/06 04:35:09;;;;;;;;;;;;;;;14.44;97.51;96999.48;1773117;80;21061;-90
2021/08/06 04:37:37;;;;;;;;;;;;;;;14.42;97.52;96993.06;1748016;80;24855;-90
2021/08/06 04:40:05;;;;;;;;;;;;;;;14.45;97.56;97002.45;1781318;80;20152;-89
2021/08/06 04:42:31;;;;;;;;;;;;;;;14.43;97.58;97005.23;1779061;80;24816;-90
2021/08/06 04:44:57;;;;;;;;;;;;;;;14.43;97.61;97004.41;1774101;80;20276;-90
2021/08/06 04:47:24;;;;;;;;;;;;;;;14.48;97.64;97008.68;1777455;80;21641;-90
2021/08/06 04:49:50;;;;;;;;;;;;;;;14.51;97.66;97001.27;1773534;80;24476;-90
2021/08/06 04:52:18;;;;;;;;;;;;;;;14.55;97.71;97006.55;1779601;80;20486;-90
2021/08/06 04:54:44;;;;;;;;;;;;;;;14.56;97.73;97010.00;1770400;80;24816;-90
2021/08/06 04:57:10;;;;;;;;;;;;;;;14.56;97.78;97004.22;1775257;80;20743;-90
2021/08/06 04:59:40;;;;;;;;;;;;;;;14.57;97.79;97006.36;1772930;80;26040;-90
2021/08/06 05:02:06;;;;;;;;;;;;;;;14.55;97.79;97007.86;1807590;79;25218;-90
2021/08/06 05:04:32;;;;;;;;;;;;;;;14.56;97.83;97016.59;1762570;80;20157;-90
2021/08/06 05:07:07;;;;;;;;;;;;;;;14.55;97.83;97018.39;1779998;79;20338;-90
2021/08/06 05:09:33;;;;;;;;;;;;;;;14.54;97.86;97022.01;1775651;80;21977;-90
2021/08/06 05:11:59;;;;;;;;;;;;;;;14.57;97.88;97028.25;1762858;80;21021;-90
2021/08/06 05:14:25;;;;;;;;;;;;;;;14.60;97.90;97023.98;1800385;79;24401;-90
2021/08/06 05:16:51;;;;;;;;;;;;;;;14.62;97.96;97021.98;1793873;79;20297;-90
2021/08/06 05:19:17;;;;;;;;;;;;;;;14.62;97.98;97030.38;1802349;79;24719;-90
2021/08/06 05:21:43;;;;;;;;;;;;;;;14.63;97.98;97034.66;1796070;79;22071;-90
2021/08/06 05:24:15;;;;;;;;;;;;;;;14.67;98.03;97033.85;1795235;79;26102;-90
2021/08/06 05:26:41;;;;;;;;;;;;;;;14.68;98.06;97038.10;1793913;79;24522;-90
2021/08/06 05:29:07;;;;;;;;;;;;;;;14.66;98.09;97039.61;1776135;80;20834;-90
2021/08/06 05:31:33;;;;;;;;;;;;;;;14.71;98.09;97043.05;1784660;79;20737;-90
2021/08/06 05:33:59;;;;;;;;;;;;;;;14.73;98.13;97056.36;1809077;79;21986;-89
2021/08/06 05:36:25;;;;;;;;;;;;;;;14.76;98.15;97049.47;1805277;79;21084;-90
2021/08/06 05:38:51;;;;;;;;;;;;;;;14.76;98.16;97046.83;1809031;79;20350;-90
2021/08/06 05:41:17;;;;;;;;;;;;;;;14.76;98.18;97044.20;1811135;79;20249;-90
2021/08/06 05:43:46;;;;;;;;;;;;;;;14.81;98.21;97050.27;1806447;79;24820;-90
2021/08/06 05:46:14;;;;;;;;;;;;;;;14.84;98.22;97045.48;1805510;79;20201;-90
2021/08/06 05:48:41;;;;;;;;;;;;;;;14.87;98.25;97049.61;1807765;79;26016;-90
2021/08/06 05:51:19;;;;;;;;;;;;;;;14.92;98.27;97056.52;1807416;79;24498;-89
2021/08/06 05:53:45;;;;;;;;;;;;;;;14.95;98.29;97056.16;1806705;79;20316;-90
2021/08/06 05:56:11;;;;;;;;;;;;;;;14.98;98.33;97054.53;1808981;79;20214;-90
2021/08/06 05:58:37;;;;;;;;;;;;;;;15.02;98.33;97060.61;1804848;79;22052;-90
2021/08/06 06:01:03;;;;;;;;;;;;;;;15.04;98.34;97060.45;1804589;79;26006;-91
2021/08/06 06:03:33;;;;;;;;;;;;;;;14.99;98.35;97058.32;1802400;79;24620;-91
2021/08/06 06:06:03;;;;;;;;;;;;;;;14.97;98.35;97058.15;1799959;79;20222;-89
2021/08/06 06:08:29;;;;;;;;;;;;;;;14.96;98.32;97055.18;1799824;79;24659;-88
2021/08/06 06:10:54;;;;;;;;;;;;;;;14.94;98.32;97060.64;1800427;79;20289;-89
2021/08/06 06:13:20;;;;;;;;;;;;;;;14.94;98.34;97066.40;1801318;79;20875;-89
2021/08/06 06:15:46;;;;;;;;;;;;;;;14.97;98.33;97070.00;1798574;79;20290;-88
2021/08/06 06:18:12;;;;;;;;;;;;;;;15.00;98.35;97067.05;1800948;79;20405;-89
2021/08/06 06:20:39;;;;;;;;;;;;;;;15.02;98.35;97071.63;1801188;79;25641;-89
2021/08/06 06:23:05;;;;;;;;;;;;;;;15.04;98.38;97069.67;1799855;79;20292;-87
2021/08/06 06:25:31;;;;;;;;;;;;;;;15.04;98.41;97069.17;1800198;79;21034;-86
2021/08/06 06:27:58;;;;;;;;;;;;;;;14.99;98.38;97070.67;1801628;78;20273;-87
2021/08/06 06:30:26;;;;;;;;;;;;;;;14.98;98.39;97072.48;1799853;78;20277;-87
2021/08/06 06:32:53;;;;;;;;;;;;;;;15.00;98.37;97069.16;1802630;79;24706;-87
2021/08/06 06:35:19;;;;;;;;;;;;;;;15.06;98.38;97078.20;1799655;79;21949;-87
2021/08/06 06:37:46;;;;;;;;;;;;;;;15.11;98.41;97078.52;1798986;79;25950;-86
2021/08/06 06:40:23;;;;;;;;;;;;;;;15.12;98.44;97079.34;1798960;79;24488;-86
2021/08/06 06:42:49;;;;;;;;;;;;;;;15.11;98.45;97079.84;1803350;79;20725;-87
2021/08/06 06:45:15;;;;;;;;;;;;;;;15.13;98.45;97075.23;1800283;79;24803;-86
2021/08/06 06:47:43;;;;;;;;;;;;;;;15.17;98.48;97077.85;1804187;79;22007;-86
2021/08/06 06:50:10;;;;;;;;;;;;;;;15.22;98.48;97082.64;1800820;79;25982;-87
2021/08/06 06:52:37;;;;;;;;;;;;;;;15.27;98.52;97081.14;1801067;79;24416;-87
2021/08/06 06:55:03;;;;;;;;;;;;;;;15.28;98.55;97076.17;1800762;79;20143;-88
2021/08/06 06:57:31;;;;;;;;;;;;;;;15.30;98.56;97083.42;1799219;79;24821;-89
2021/08/06 07:00:01;;;;;;;;;;;;;;;15.37;98.58;97082.27;1801468;79;22588;-89
2021/08/06 07:02:29;;;;;;;;;;;;;;;15.43;98.65;97082.41;1799899;79;26127;-88
2021/08/06 07:05:01;;;;;;;;;;;;;;;15.52;98.69;97088.98;1807786;79;25270;-87
2021/08/06 07:07:27;;;;;;;;;;;;;;;15.60;98.72;97085.80;1807483;79;20249;-87
2021/08/06 07:09:53;;;;;;;;;;;;;;;15.65;98.77;97091.42;1802788;77;24753;-90
2021/08/06 07:12:27;;;;;;;;;;;;;;;15.75;98.84;97095.16;1804467;78;20163;-89
2021/08/06 07:15:03;;;;;;;;;;;;;;;15.83;98.89;97093.30;1808177;79;25967;-89
2021/08/06 07:17:34;;;;;;;;;;;;;;;15.93;98.93;97095.70;1805963;79;24710;-89
2021/08/06 07:20:03;;;;;;;;;;;;;;;16.02;98.96;97103.92;1806650;79;20688;-90
2021/08/06 07:22:35;;;;;;;;;;;;;;;16.17;99.01;97107.46;1806336;79;24728;-89
2021/08/06 07:25:26;;;;;;;;;;;;;;;16.31;99.09;97105.37;1804182;79;21970;-89
2021/08/06 07:27:58;;;;;;;;;;;;;;;16.37;99.12;97105.17;1791450;79;26048;-90
2021/08/06 07:30:26;;;;;;;;;;;;;;;16.42;99.15;97109.42;1801742;79;25225;-90
2021/08/06 07:33:00;;;;;;;;;;;;;;;16.46;99.14;97110.74;1796686;79;20288;-89
2021/08/06 07:35:32;;;;;;;;;;;;;;;16.50;99.11;97115.98;1798605;79;25570;-89
2021/08/06 07:37:57;;;;;;;;;;;;;;;16.48;99.05;97114.01;1800159;79;22003;-89
2021/08/06 07:40:22;;;;;;;;;;;;;;;16.46;98.97;97123.12;1799550;79;20930;-89
2021/08/06 07:42:50;;;;;;;;;;;;;;;16.41;98.87;97122.33;1798983;79;24401;-89
2021/08/06 07:45:28;;;;;;;;;;;;;;;16.41;98.78;97125.47;1796039;79;20160;-90
2021/08/06 07:47:55;;;;;;;;;;;;;;;16.44;98.70;97126.42;1798078;79;24738;-90
2021/08/06 07:50:21;;;;;;;;;;;;;;;16.50;98.61;97129.69;1796989;79;22059;-90
2021/08/06 07:52:47;;;;;;;;;;;;;;;16.53;98.58;97135.42;1800919;79;21000;-88
2021/08/06 07:55:19;;;;;;;;;;;;;;;16.59;98.54;97136.08;1795375;79;24682;-89
2021/08/06 07:57:46;;;;;;;;;;;;;;;16.65;98.48;97135.87;1797903;79;20240;-89
2021/08/06 08:00:26;;;;;;;;;;;;;;;16.71;98.42;97137.81;1799255;79;25549;-90
2021/08/06 08:02:52;;;;;;;;;;;;;;;16.73;98.36;97143.26;1726930;82;22064;-90
2021/08/06 08:05:23;;;;;;;;;;;;;;;16.70;98.31;97140.95;1796667;79;20861;-89
2021/08/06 08:07:50;;;;;;;;;;;;;;;16.67;98.17;97145.78;1800411;79;24298;-89
2021/08/06 08:10:22;;;;;;;;;;;;;;;16.65;98.08;97145.95;1800796;79;20203;-89
2021/08/06 08:12:56;;;;;;;;;;;;;;;16.64;98.02;97147.44;1796193;79;24741;-89
2021/08/06 08:18:29;;;;;;;;;;;;;;;16.76;97.91;97146.03;1772175;80;22125;-89
2021/08/06 08:20:56;;;;;;;;;;;;;;;16.78;97.87;97130.00;1765084;81;24443;-89
2021/08/06 08:23:37;;;;;;;;;;;;;;;16.94;97.85;97137.30;1796115;79;20447;-89
2021/08/06 08:26:09;;;;;;;;;;;;;;;17.10;97.88;97133.69;1754787;80;24774;-89
2021/08/06 08:28:37;;;;;;;;;;;;;;;17.20;97.92;97135.56;1763114;80;22143;-89
2021/08/06 08:31:03;;;;;;;;;;;;;;;17.22;97.89;97135.39;1765843;80;26383;-88
2021/08/06 08:33:29;;;;;;;;;;;;;;;17.19;97.79;97131.77;1795593;79;25113;-88
2021/08/06 08:36:04;;;;;;;;;;;;;;;17.16;97.68;97132.97;1773951;80;20287;-88
2021/08/06 08:38:33;;;;;;;;;;;;;;;17.12;97.54;97127.23;1760409;80;25499;-88
2021/08/06 08:40:59;;;;;;;;;;;;;;;17.07;97.40;97129.56;1779916;77;22090;-88
2021/08/06 08:43:25;;;;;;;;;;;;;;;17.02;97.27;97127.96;1760443;80;26002;-89
2021/08/06 08:45:53;;;;;;;;;;;;;;;16.98;97.11;97124.54;1758175;81;25349;-88
2021/08/06 08:48:20;;;;;;;;;;;;;;;16.95;96.99;97129.70;1775947;79;20248;-90
2021/08/06 08:50:49;;;;;;;;;;;;;;;16.96;96.89;97124.73;1803896;79;24743;-88
2021/08/06 08:53:15;;;;;;;;;;;;;;;17.00;96.79;97124.70;1753826;80;22699;-89
2021/08/06 08:55:42;;;;;;;;;;;;;;;17.06;96.75;97123.98;1798636;79;21174;-89
2021/08/06 08:58:10;;;;;;;;;;;;;;;17.09;96.74;97132.03;1787588;79;25146;-88
2021/08/06 09:00:39;;;;;;;;;;;;;;;17.05;96.67;97128.94;1772764;81;20245;-89
2021/08/06 09:03:05;;;;;;;;;;;;;;;17.05;96.58;97130.27;1791630;79;25025;-88
2021/08/06 09:05:40;;;;;;;;;;;;;;;17.06;96.52;97138.52;1768100;81;20811;-88
2021/08/06 09:08:19;;;;;;;;;;;;;;;17.07;96.46;97137.49;1806306;79;26090;-88
2021/08/06 09:10:45;;;;;;;;;;;;;;;17.08;96.37;97140.46;1757857;80;25378;-88
2021/08/06 09:13:11;;;;;;;;;;;;;;;17.09;96.29;97136.83;1805222;79;20339;-88
2021/08/06 09:15:54;;;;;;;;;;;;;;;17.20;96.23;97141.35;1793782;79;24791;-88
2021/08/06 09:18:25;;;;;;;;;;;;;;;17.34;96.23;97130.81;1763460;80;22165;-89
2021/08/06 09:20:53;;;;;;;;;;;;;;;17.50;96.19;97127.17;1757858;81;25981;-87
2021/08/06 09:23:47;;;;;;;;;;;;;;;17.65;96.16;97131.98;1770418;80;25276;-88
2021/08/06 09:26:30;;;;;;;;;;;;;;;17.77;96.09;97131.02;1795053;79;20304;-88
2021/08/06 09:29:00;;;;;;;;;;;;;;;17.82;95.98;97135.27;1808036;79;24742;-88
2021/08/06 09:31:35;;;;;;;;;;;;;;;17.78;95.71;97128.17;1793158;79;22051;-89
2021/08/06 09:34:39;;;;;;;;;;;;;;;17.79;95.46;97131.14;1757671;80;25941;-89
2021/08/06 09:37:07;;;;;;;;;;;;;;;17.87;95.29;97132.88;1797893;79;24509;-89
2021/08/06 09:42:25;;;;;;;;;;;;;;;18.14;95.01;97125.58;1791147;79;24737;-89
2021/08/06 09:44:59;;;;;;;;;;;;;;;18.18;94.78;97137.92;1802979;79;21994;-89
2021/08/06 09:47:26;;;;;;;;;;;;;;;18.15;94.49;97133.02;1778570;79;25958;-89
2021/08/06 09:49:55;;;;;;;;;;;;;;;18.21;94.27;97134.42;1760315;80;24477;-89
2021/08/06 09:52:38;;;;;;;;;;;;;;;18.24;94.08;97138.52;1798248;79;20486;-89
2021/08/06 09:55:05;;;;;;;;;;;;;;;18.22;93.84;97136.57;1792359;79;25680;-90
2021/08/06 09:57:45;;;;;;;;;;;;;;;18.14;93.59;97142.78;1758689;80;21973;-91
2021/08/06 10:00:17;;;;;;;;;;;;;;;18.10;93.34;97139.38;1798617;79;26048;-91
2021/08/06 10:02:43;;;;;;;;;;;;;;;18.05;93.13;97142.59;1786602;79;24477;-91
2021/08/06 10:05:12;;;;;;;;;;;;;;;17.95;92.91;97140.70;1789837;79;20517;-90
2021/08/06 10:07:46;;;;;;;;;;;;;;;17.82;92.63;97150.64;1795214;78;24704;-90
2021/08/06 10:10:13;;;;;;;;;;;;;;;17.68;92.38;97151.95;1770948;80;21929;-91
2021/08/06 10:12:40;;;;;;;;;;;;;;;17.55;92.09;97155.22;1804443;79;26728;-90
2021/08/06 10:15:18;;;;;;;;;;;;;;;17.47;91.80;97156.11;1806571;79;24469;-90
2021/08/06 10:17:46;;;;;;;;;;;;;;;17.39;91.59;97159.36;1805492;79;20332;-91
2021/08/06 10:20:14;;;;;;;;;;;;;;;17.33;91.37;97159.58;1807011;79;25644;-90
2021/08/06 10:22:41;;;;;;;;;;;;;;;17.31;91.21;97163.39;1803636;79;22004;-91
2021/08/06 10:25:09;;;;;;;;;;;;;;;17.41;91.14;97161.30;1801090;79;25786;-90
2021/08/06 10:27:39;;;;;;;;;;;;;;;17.54;91.13;97152.25;1801562;79;23896;-90
2021/08/06 10:30:08;;;;;;;;;;;;;;;17.72;91.14;97157.22;1799667;78;20335;-90
2021/08/06 10:32:35;;;;;;;;;;;;;;;17.85;91.18;97158.20;1777084;79;24848;-89
2021/08/06 10:35:05;;;;;;;;;;;;;;;18.00;91.14;97160.03;1773089;79;22967;-90
2021/08/06 10:37:48;;;;;;;;;;;;;;;18.17;91.17;97159.61;1808812;79;26026;-90
2021/08/06 10:40:35;;;;;;;;;;;;;;;18.27;91.12;97156.16;1792366;79;25403;-91
2021/08/06 10:43:13;;;;;;;;;;;;;;;18.38;91.02;97154.88;1808712;78;20178;-90
2021/08/06 10:45:48;;;;;;;;;;;;;;;18.50;90.87;97160.48;1739818;80;24916;-90
2021/08/06 10:48:34;;;;;;;;;;;;;;;18.57;90.67;97166.22;1808813;79;21995;-90
2021/08/06 10:51:02;;;;;;;;;;;;;;;18.68;90.48;97169.70;1791484;79;25986;-90
2021/08/06 10:53:28;;;;;;;;;;;;;;;18.74;90.14;97168.94;1774674;79;24439;-90
2021/08/06 10:56:14;;;;;;;;;;;;;;;18.80;89.79;97170.84;1812223;79;20525;-90
2021/08/06 10:58:51;;;;;;;;;;;;;;;18.93;89.51;97173.30;1805749;79;24801;-90
2021/08/06 11:01:29;;;;;;;;;;;;;;;18.94;89.14;97179.72;1810630;79;22026;-90
2021/08/06 11:03:57;;;;;;;;;;;;;;;18.91;88.71;97181.44;1806363;79;26111;-90
2021/08/06 11:06:41;;;;;;;;;;;;;;;18.88;88.35;97179.16;1809502;79;25051;-90
2021/08/06 11:09:11;;;;;;;;;;;;;;;18.81;87.99;97179.62;1811201;79;20215;-90
2021/08/06 11:11:56;;;;;;;;;;;;;;;18.83;87.67;97180.73;1808909;79;25013;-89
2021/08/06 11:14:30;;;;;;;;;;;;;;;18.84;87.40;97180.55;1809721;79;22097;-89
2021/08/06 11:17:15;;;;;;;;;;;;;;;18.82;87.00;97189.72;1808717;77;26612;-89
2021/08/06 11:19:49;;;;;;;;;;;;;;;18.74;86.60;97185.34;1803221;79;24671;-90
2021/08/06 11:22:23;;;;;;;;;;;;;;;18.67;86.18;97182.63;1807296;79;20137;-89
2021/08/06 11:24:56;;;;;;;;;;;;;;;18.65;85.89;97183.84;1805923;79;24784;-89
2021/08/06 11:27:24;;;;;;;;;;;;;;;18.61;85.63;97187.84;1806149;79;23090;-89
2021/08/06 11:30:07;;;;;;;;;;;;;;;18.52;85.37;97193.75;1807272;79;25997;-89
2021/08/06 11:32:37;;;;;;;;;;;;;;;18.41;85.09;97188.94;1810853;79;25393;-89
2021/08/06 11:35:04;;;;;;;;;;;;;;;18.37;84.77;97187.67;1781224;79;20241;-89
2021/08/06 11:37:47;;;;;;;;;;;;;;;18.29;84.49;97193.89;1807566;79;24898;-89
2021/08/06 11:40:14;;;;;;;;;;;;;;;18.28;84.25;97200.69;1809569;79;22035;-89
2021/08/06 11:42:41;;;;;;;;;;;;;;;18.27;84.02;97189.80;1809346;79;25948;-89
2021/08/06 11:45:08;;;;;;;;;;;;;;;18.27;83.82;97197.21;1808464;77;24485;-89
2021/08/06 11:47:41;;;;;;;;;;;;;;;18.30;83.66;97198.19;1804952;79;20467;-89
2021/08/06 11:50:09;;;;;;;;;;;;;;;18.31;83.47;97193.71;1805873;79;24766;-88
2021/08/06 11:52:45;;;;;;;;;;;;;;;18.35;83.29;97195.80;1777362;79;21612;-89
2021/08/06 11:55:20;;;;;;;;;;;;;;;18.39;83.15;97190.44;1789470;79;26085;-88
2021/08/06 11:57:52;;;;;;;;;;;;;;;18.51;83.10;97193.42;1792254;79;20233;-89
2021/08/06 12:00:29;;;;;;;;;;;;;;;18.82;83.15;97195.81;1800576;79;20739;-89
2021/08/06 12:03:12;;;;;;;;;;;;;;;19.06;83.17;97196.77;1798117;79;25680;-89
2021/08/06 12:05:39;;;;;;;;;;;;;;;19.25;83.16;97191.34;1791823;79;22093;-89
2021/08/06 12:08:12;;;;;;;;;;;;;;;19.39;83.11;97187.76;1773917;80;25967;-89
2021/08/06 12:10:40;;;;;;;;;;;;;;;19.38;82.85;97186.11;1765582;80;24487;-89
2021/08/06 12:13:21;;;;;;;;;;;;;;;19.37;82.55;97190.27;1807646;79;20507;-89
2021/08/06 12:15:47;;;;;;;;;;;;;;;19.32;82.22;97192.69;1814492;79;24657;-89
2021/08/06 12:18:15;;;;;;;;;;;;;;;19.34;81.89;97194.16;1809411;79;22045;-88
2021/08/06 12:20:43;;;;;;;;;;;;;;;19.50;81.75;97201.03;1813287;79;26021;-89
2021/08/06 12:23:10;;;;;;;;;;;;;;;19.50;81.47;97201.86;1815086;79;24332;-88
2021/08/06 12:25:37;;;;;;;;;;;;;;;19.55;81.23;97195.45;1814843;79;20326;-88
2021/08/06 12:28:03;;;;;;;;;;;;;;;19.53;80.93;97201.96;1811604;78;24911;-88
2021/08/06 12:30:30;;;;;;;;;;;;;;;19.48;80.59;97205.20;1813750;79;21996;-88
2021/08/06 12:32:57;;;;;;;;;;;;;;;19.45;80.27;97204.77;1812657;79;25968;-88
2021/08/06 12:35:24;;;;;;;;;;;;;;;19.42;80.02;97211.23;1814054;79;24087;-89
2021/08/06 12:37:51;;;;;;;;;;;;;;;19.37;79.79;97218.95;1812159;79;20243;-88
2021/08/06 12:40:18;;;;;;;;;;;;;;;19.37;79.60;97213.65;1812942;79;25695;-88
2021/08/06 12:42:44;;;;;;;;;;;;;;;19.34;79.36;97215.38;1812334;79;21910;-88
2021/08/06 12:45:12;;;;;;;;;;;;;;;19.36;79.20;97216.02;1814058;79;26052;-88
2021/08/06 12:47:43;;;;;;;;;;;;;;;19.39;79.06;97214.80;1811908;79;24489;-88
2021/08/06 12:50:10;;;;;;;;;;;;;;;19.46;78.96;97211.22;1815315;79;20270;-88
2021/08/06 12:52:38;;;;;;;;;;;;;;;19.55;78.79;97208.73;1812078;79;24806;-88
2021/08/06 12:55:06;;;;;;;;;;;;;;;19.74;78.73;97208.56;1810175;79;22217;-88
2021/08/06 12:57:40;;;;;;;;;;;;;;;19.89;78.59;97211.09;1798910;79;26066;-89
2021/08/06 13:00:13;;;;;;;;;;;;;;;20.08;78.47;97208.22;1777383;80;24677;-88
2021/08/06 13:02:39;;;;;;;;;;;;;;;20.31;78.46;97216.72;1766445;80;20283;-89
2021/08/06 13:05:08;;;;;;;;;;;;;;;20.47;78.37;97215.08;1771000;80;24775;-88
2021/08/06 13:07:34;;;;;;;;;;;;;;;20.61;78.18;97218.62;1772413;79;22023;-88